Channing, Michigan
Current Conditions -  °F | °C
As of 11:54 AM on Tuesday 21 Oct 2014 (Local Time) from KIMT Reporting Station
Clear Clear  
Wind Chill: 41°   Ceiling: Unl
Heat Index: 46°   Visibility: 10mi
Dew Point: 32°   Wind: 9mph
Humidity: 58%   Direction: 330°NNW
Pressure: 30.24"   Gusts: NA
Location:  46.14°N, 88.09°W
Report Text: KIMT 211654Z AUTO 33008KT 10SM CLR 08/00 A3024 RMK AO2 SLP251 T00780000
Loading
Personal Weather Stations






























Interactive Weather Map New forecast layout! Learn more

10-Day Weather Forecast

Advertisements
Track Severe Weather on mobile